createdAt,value
2023-03-26T16:30:26.037Z,45.40
2023-03-26T16:30:39.008Z,42.90
2023-03-26T16:30:47.584Z,37.48
2023-03-26T16:30:56.993Z,34.58
2023-03-26T16:31:23.284Z,33.47
2023-03-26T16:31:43.153Z,33.58
2023-03-26T16:31:49.296Z,29.94
2023-03-26T16:31:59.211Z,29.74
2023-03-26T16:32:10.927Z,29.93
2023-03-26T16:32:19.555Z,30.02
2023-03-26T16:32:29.587Z,29.41
2023-03-26T16:32:49.873Z,28.91
2023-03-26T16:33:00.983Z,29.39
2023-03-26T16:33:10.300Z,29.60
2023-03-26T16:33:20.270Z,28.80
2023-03-26T16:33:31.057Z,27.98
2023-03-26T16:33:40.457Z,27.88
2023-03-26T16:33:51.447Z,27.88
2023-03-26T16:34:10.862Z,27.97
2023-03-26T16:34:21.052Z,27.37
2023-03-26T16:34:31.077Z,27.57
2023-03-26T16:34:41.511Z,27.97
2023-03-26T16:34:52.055Z,28.07
2023-03-26T16:35:01.607Z,28.37
2023-03-26T16:35:11.610Z,28.37
2023-03-26T16:35:21.806Z,28.67
2023-03-26T16:35:31.888Z,28.47
2023-03-26T16:35:42.091Z,28.37
2023-03-26T16:35:52.558Z,28.27
2023-03-26T16:36:02.441Z,28.07
2023-03-26T16:36:12.437Z,28.27
2023-03-26T16:36:22.866Z,28.37
2023-03-26T16:36:32.607Z,28.17
2023-03-26T16:36:42.961Z,28.17
2023-03-26T16:36:52.873Z,28.37
2023-03-26T16:37:03.551Z,28.67
2023-03-26T16:37:13.202Z,28.57
2023-03-26T16:37:23.265Z,28.67
2023-03-26T16:37:33.514Z,29.77
2023-03-26T16:37:44.585Z,30.77
2023-03-26T16:37:53.669Z,31.57
2023-03-26T16:38:03.956Z,31.57
2023-03-26T16:38:13.886Z,29.68
2023-03-26T16:38:24.168Z,28.68
2023-03-26T16:38:35.151Z,28.28
2023-03-26T16:38:54.715Z,28.28
2023-03-26T16:39:04.680Z,28.18
2023-03-26T16:39:14.710Z,28.18
2023-03-26T16:39:24.868Z,28.18
2023-03-26T16:39:35.071Z,28.38
2023-03-26T16:39:45.137Z,28.98
2023-03-26T16:39:55.155Z,29.88
2023-03-26T16:40:05.400Z,30.38
2023-03-26T16:40:15.434Z,30.68
2023-03-26T16:40:25.775Z,31.18
2023-03-26T16:40:35.703Z,31.58
2023-03-26T16:40:45.967Z,31.18
2023-03-26T16:40:59.292Z,31.08
2023-03-26T16:41:06.057Z,31.08
2023-03-26T16:41:16.113Z,32.09
2023-03-26T16:41:26.608Z,33.39
2023-03-26T16:41:36.408Z,33.39
2023-03-26T16:41:47.168Z,33.70
2023-03-26T16:42:05.902Z,33.00
2023-03-26T16:42:12.327Z,33.39
2023-03-26T16:42:18.207Z,33.20
2023-03-26T16:42:28.379Z,33.39
2023-03-26T16:42:38.495Z,33.21
2023-03-26T16:42:48.983Z,32.71
2023-03-26T16:42:59.589Z,33.21
2023-03-26T16:43:19.082Z,32.31
2023-03-26T16:43:29.109Z,32.21
2023-03-26T16:43:39.076Z,31.61
2023-03-26T16:43:49.314Z,31.11
2023-03-26T16:43:59.466Z,31.11
2023-03-26T16:44:09.773Z,31.01
2023-03-26T16:44:19.612Z,31.01
2023-03-26T16:44:30.732Z,30.91
2023-03-26T16:44:40.085Z,30.71
2023-03-26T16:44:50.097Z,30.21
2023-03-26T16:45:00.167Z,29.51
2023-03-26T16:45:10.343Z,29.39
2023-03-26T16:45:20.400Z,29.69
2023-03-26T16:45:31.574Z,30.60
2023-03-26T16:45:40.725Z,31.20
2023-03-26T16:45:50.897Z,30.99
2023-03-26T16:46:01.037Z,31.59
2023-03-26T16:46:10.961Z,31.90
2023-03-26T16:46:21.078Z,32.40
2023-03-26T16:46:42.022Z,32.29
2023-03-26T16:46:51.457Z,31.99
2023-03-26T16:47:01.836Z,31.40
2023-03-26T16:47:11.839Z,30.79
2023-03-26T16:47:21.929Z,30.79
2023-03-26T16:47:32.035Z,31.20
2023-03-26T16:47:42.177Z,31.10
2023-03-26T16:47:52.382Z,30.99
2023-03-26T16:48:02.304Z,30.90
2023-03-26T16:48:12.515Z,30.90
2023-03-26T16:48:22.689Z,31.29
2023-03-26T16:48:32.706Z,30.99
2023-03-26T16:48:42.896Z,31.10
2023-03-26T16:48:52.973Z,31.40
2023-03-26T16:49:03.218Z,31.59
2023-03-26T16:49:13.262Z,31.59
2023-03-26T16:49:23.419Z,30.99
2023-03-26T16:49:33.574Z,29.48
2023-03-26T16:49:43.667Z,28.88
2023-03-26T16:50:07.745Z,28.88
2023-03-26T16:50:14.788Z,29.17
2023-03-26T16:50:21.822Z,32.67
2023-03-26T16:50:31.071Z,38.85
2023-03-26T16:50:41.301Z,41.55
2023-03-26T16:50:51.344Z,43.35
2023-03-26T16:51:01.742Z,45.25
2023-03-26T16:51:21.673Z,47.05
2023-03-26T16:51:31.861Z,47.87
2023-03-26T16:51:42.711Z,47.75
2023-03-26T16:51:52.155Z,48.27
2023-03-26T16:52:02.234Z,48.87
2023-03-26T16:52:12.941Z,49.27
2023-03-26T16:52:22.422Z,49.47
2023-03-26T16:52:32.646Z,50.37
2023-03-26T16:52:52.636Z,51.67
2023-03-26T16:53:03.694Z,52.17
2023-03-26T16:53:12.956Z,52.37
2023-03-26T16:53:23.127Z,52.57
2023-03-26T16:53:33.155Z,53.19
2023-03-26T16:53:43.304Z,53.39
2023-03-26T16:53:53.496Z,53.59
2023-03-26T16:54:03.834Z,53.69
2023-03-26T16:54:14.023Z,53.59
2023-03-26T16:54:24.146Z,53.69
2023-03-26T16:54:34.332Z,53.79
2023-03-26T16:54:44.313Z,54.29
2023-03-26T16:54:54.533Z,54.49
2023-03-26T16:55:04.612Z,54.60
2023-03-26T16:55:14.824Z,54.99
2023-03-26T16:55:24.837Z,56.20
2023-03-26T16:55:35.108Z,56.92
2023-03-26T16:55:45.116Z,57.02
2023-03-26T16:55:55.429Z,56.82
2023-03-26T16:56:05.432Z,56.72
2023-03-26T16:56:15.580Z,56.72
2023-03-26T16:56:26.610Z,56.72
2023-03-26T16:56:35.916Z,56.62
2023-03-26T16:56:45.937Z,56.82
2023-03-26T16:56:56.255Z,57.32
2023-03-26T16:57:06.269Z,57.52
2023-03-26T16:57:17.124Z,57.75
2023-03-26T16:57:26.693Z,57.95
2023-03-26T16:57:36.548Z,58.15
2023-03-26T16:57:46.631Z,58.25
2023-03-26T16:57:56.735Z,58.25
2023-03-26T16:58:06.841Z,58.35
2023-03-26T16:58:27.103Z,58.55
2023-03-26T16:58:38.220Z,58.65
2023-03-26T16:58:47.176Z,58.85
2023-03-26T16:58:57.371Z,59.25
2023-03-26T16:59:07.455Z,59.45
2023-03-26T16:59:17.623Z,59.65
2023-03-26T16:59:27.708Z,60.05
2023-03-26T17:00:04.901Z,60.45
2023-03-26T17:00:13.778Z,60.58
2023-03-26T17:00:19.923Z,60.88
2023-03-26T17:00:29.973Z,60.78
2023-03-26T17:00:40.270Z,60.78
2023-03-26T17:00:50.251Z,60.81
2023-03-26T17:01:00.380Z,60.71
2023-03-26T17:01:20.761Z,60.31
2023-03-26T17:01:31.154Z,60.71
2023-03-26T17:01:40.901Z,61.24
2023-03-26T17:01:51.661Z,61.64
2023-03-26T17:02:01.084Z,61.97
2023-03-26T17:02:11.152Z,62.17
2023-03-26T17:02:21.546Z,62.40
2023-03-26T17:02:31.632Z,62.60
2023-03-26T17:02:41.597Z,62.70
2023-03-26T17:02:51.839Z,62.90
2023-03-26T17:03:02.082Z,63.13
2023-03-26T17:03:11.916Z,63.33
2023-03-26T17:03:22.137Z,63.43
2023-03-26T17:03:32.729Z,63.43
2023-03-26T17:03:43.457Z,63.64
2023-03-26T17:03:52.709Z,63.93
2023-03-26T17:04:03.697Z,64.24
2023-03-26T17:04:12.819Z,64.14
2023-03-26T17:04:22.993Z,63.93
2023-03-26T17:04:33.232Z,63.73
2023-03-26T17:04:43.112Z,63.73
2023-03-26T17:04:53.334Z,63.73
2023-03-26T17:05:04.281Z,63.84
2023-03-26T17:05:13.481Z,63.73
2023-03-26T17:05:23.668Z,63.53
2023-03-26T17:05:33.760Z,63.23
2023-03-26T17:05:43.820Z,63.13
2023-03-26T17:05:54.054Z,63.43
2023-03-26T17:06:04.796Z,63.73
2023-03-26T17:06:14.376Z,63.73
2023-03-26T17:06:24.453Z,63.33
2023-03-26T17:06:34.614Z,63.23
2023-03-26T17:06:44.584Z,63.26
2023-03-26T17:06:55.813Z,63.26
2023-03-26T17:07:04.871Z,63.56
2023-03-26T17:07:14.970Z,63.76
2023-03-26T17:07:25.117Z,64.17
2023-03-26T17:07:35.212Z,64.50
2023-03-26T17:07:45.330Z,64.60
2023-03-26T17:08:05.552Z,64.70
2023-03-26T17:08:16.866Z,64.70
2023-03-26T17:08:35.919Z,64.70
2023-03-26T17:08:43.699Z,64.60
2023-03-26T17:08:50.678Z,64.30
2023-03-26T17:08:59.916Z,64.10
2023-03-26T17:09:11.399Z,63.19
2023-03-26T17:09:20.114Z,63.29
2023-03-26T17:09:30.356Z,63.19
2023-03-26T17:09:50.693Z,63.90
2023-03-26T17:10:01.772Z,64.10
2023-03-26T17:10:10.814Z,64.10
2023-03-26T17:10:21.029Z,64.00
2023-03-26T17:10:31.182Z,64.00
2023-03-26T17:10:41.292Z,64.10
2023-03-26T17:10:51.446Z,63.79
2023-03-26T17:11:12.600Z,62.59
2023-03-26T17:11:22.160Z,62.29
2023-03-26T17:11:31.962Z,62.79
2023-03-26T17:11:41.939Z,62.46
2023-03-26T17:11:52.014Z,62.46
2023-03-26T17:12:02.170Z,62.46
2023-03-26T17:12:23.042Z,62.16
2023-03-26T17:12:32.533Z,61.76
2023-03-26T17:12:42.795Z,61.46
2023-03-26T17:12:52.856Z,61.35
2023-03-26T17:13:02.878Z,61.25
2023-03-26T17:13:13.167Z,61.18
2023-03-26T17:13:23.258Z,61.29
2023-03-26T17:13:33.449Z,61.29
2023-03-26T17:13:43.562Z,61.08
2023-03-26T17:13:53.614Z,61.29
2023-03-26T17:14:04.603Z,61.49
2023-03-26T17:14:13.899Z,61.58
2023-03-26T17:14:23.995Z,61.38
2023-03-26T17:14:34.358Z,61.38
2023-03-26T17:14:44.329Z,61.49
2023-03-26T17:14:54.461Z,61.58
2023-03-26T17:15:14.536Z,61.38
2023-03-26T17:15:25.118Z,61.18
2023-03-26T17:15:34.943Z,61.18
2023-03-26T17:15:45.020Z,61.18
2023-03-26T17:15:55.186Z,61.08
2023-03-26T17:16:05.267Z,61.18
2023-03-26T17:16:15.410Z,61.18
2023-03-26T17:16:25.569Z,61.38
2023-03-26T17:16:35.736Z,61.29
2023-03-26T17:16:45.929Z,61.18
2023-03-26T17:16:55.952Z,60.98
2023-03-26T17:17:07.207Z,60.78
2023-03-26T17:17:16.242Z,60.78
2023-03-26T17:17:27.248Z,60.58
2023-03-26T17:17:36.423Z,60.68
2023-03-26T17:17:46.532Z,60.78
2023-03-26T17:17:56.672Z,60.68
2023-03-26T17:18:15.932Z,60.58
2023-03-26T17:18:27.285Z,60.68
2023-03-26T17:18:38.184Z,60.78
2023-03-26T17:18:47.401Z,60.68
2023-03-26T17:18:57.528Z,60.68
2023-03-26T17:19:07.452Z,60.58
2023-03-26T17:19:17.623Z,60.48
2023-03-26T17:19:27.671Z,60.48
2023-03-26T17:19:48.057Z,60.38
2023-03-26T17:19:58.062Z,60.38
2023-03-26T17:20:09.204Z,60.18
2023-03-26T17:20:18.216Z,59.98
2023-03-26T17:20:28.628Z,59.88
2023-03-26T17:20:38.510Z,59.78
2023-03-26T17:20:48.787Z,59.78
2023-03-26T17:20:58.913Z,59.67
2023-03-26T17:21:19.282Z,59.67
2023-03-26T17:21:29.231Z,59.67
2023-03-26T17:22:20.476Z,59.78
2023-03-26T17:22:26.592Z,59.88
2023-03-26T17:22:36.850Z,59.78
2023-03-26T17:22:46.989Z,59.67
2023-03-26T17:22:56.936Z,59.67
2023-03-26T17:23:07.142Z,59.58
2023-03-26T17:23:26.320Z,59.17
2023-03-26T17:23:39.621Z,59.08
2023-03-26T17:23:47.614Z,59.08
2023-03-26T17:23:57.985Z,59.08
2023-03-26T17:24:07.866Z,59.08
2023-03-26T17:24:21.092Z,59.08
2023-03-26T17:24:28.654Z,58.97
2023-03-26T17:24:38.627Z,58.77
2023-03-26T17:24:48.762Z,58.57
2023-03-26T17:24:58.894Z,58.47
2023-03-26T17:25:09.606Z,58.77
2023-03-26T17:25:29.599Z,59.08
2023-03-26T17:32:17.294Z,57.77
2023-03-26T17:32:28.698Z,57.87
2023-03-26T17:32:38.619Z,56.86
2023-03-26T17:32:48.610Z,56.66
2023-03-26T17:32:59.622Z,56.76
2023-03-26T17:33:08.840Z,56.16
2023-03-26T17:33:18.890Z,55.86
2023-03-26T17:33:29.107Z,55.86
2023-03-26T17:33:39.464Z,56.66
2023-03-26T17:33:49.498Z,57.17
2023-03-26T17:34:09.592Z,56.36
2023-03-26T17:34:20.709Z,55.66
2023-03-26T17:34:29.940Z,55.38
2023-03-26T17:34:40.027Z,55.38
2023-03-26T17:34:50.236Z,55.88
2023-03-26T17:35:00.303Z,55.58
2023-03-26T17:35:10.832Z,55.58
2023-03-26T17:35:30.552Z,55.48
2023-03-26T17:35:41.710Z,55.58
2023-03-26T17:35:50.790Z,55.38
2023-03-26T17:36:00.895Z,55.18
2023-03-26T17:36:11.321Z,55.08
2023-03-26T17:36:21.263Z,55.08
2023-03-26T17:36:32.199Z,54.98
2023-03-26T17:36:51.697Z,55.28
2023-03-26T17:37:02.760Z,55.48
2023-03-26T17:37:11.765Z,55.68
2023-03-26T17:37:21.945Z,55.58
2023-03-26T17:37:32.091Z,55.38
2023-03-26T17:37:42.122Z,55.48
2023-03-26T17:37:52.236Z,55.68
2023-03-26T17:38:12.563Z,55.28
2023-03-26T17:38:22.653Z,55.28
2023-03-26T17:38:33.745Z,55.38
2023-03-26T17:38:45.183Z,55.28
2023-03-26T17:38:53.205Z,55.28
2023-03-26T17:39:03.204Z,55.08
2023-03-26T17:39:13.364Z,54.98
2023-03-26T17:39:23.562Z,54.98
2023-03-26T17:39:33.713Z,55.18
2023-03-26T17:39:44.679Z,55.28
2023-03-26T17:39:53.838Z,55.48
2023-03-26T17:40:04.200Z,55.55
2023-03-26T17:40:14.740Z,55.86
2023-03-26T17:40:24.345Z,56.06
2023-03-26T17:40:34.447Z,56.06
2023-03-26T17:40:54.793Z,55.86
2023-03-26T17:41:04.592Z,55.66
2023-03-26T17:41:17.661Z,55.66
2023-03-26T17:41:24.861Z,55.35
2023-03-26T17:41:35.132Z,55.05
2023-03-26T17:41:45.185Z,54.96
2023-03-26T17:41:55.183Z,54.96
2023-03-26T17:42:05.377Z,55.05
2023-03-26T17:42:15.628Z,55.05
2023-03-26T17:42:26.216Z,54.75
2023-03-26T17:42:35.946Z,54.25
2023-03-26T17:42:46.030Z,53.95
2023-03-26T17:42:56.942Z,53.95
2023-03-26T17:43:06.207Z,54.25
2023-03-26T17:43:16.226Z,54.35
2023-03-26T17:43:26.348Z,54.35
